createdAt,value
2022-12-01T00:00:11.846Z,25.10
2022-12-01T00:00:41.969Z,25.09
2022-12-01T00:01:11.967Z,25.11
2022-12-01T00:01:42.146Z,25.11
2022-12-01T00:02:12.222Z,25.09
2022-12-01T00:02:42.222Z,25.11
2022-12-01T00:03:12.403Z,25.09
2022-12-01T00:03:42.360Z,25.09
2022-12-01T00:04:12.401Z,25.11
2022-12-01T00:04:42.400Z,25.10
2022-12-01T00:05:12.386Z,25.11
2022-12-01T00:05:42.516Z,25.11
2022-12-01T00:06:12.512Z,25.11
2022-12-01T00:06:42.507Z,25.11
2022-12-01T00:07:12.623Z,25.10
2022-12-01T00:07:42.704Z,25.11
2022-12-01T00:08:12.725Z,25.11
2022-12-01T00:08:42.725Z,25.10
2022-12-01T00:09:18.005Z,25.10
2022-12-01T00:09:42.738Z,25.11
2022-12-01T00:10:12.710Z,25.09
2022-12-01T00:10:42.826Z,25.11
2022-12-01T00:11:12.958Z,25.10
2022-12-01T00:11:42.980Z,25.10
2022-12-01T00:12:12.968Z,25.10
2022-12-01T00:12:42.977Z,25.11
2022-12-01T00:13:12.983Z,25.10
2022-12-01T00:13:43.090Z,25.11
2022-12-01T00:14:13.097Z,25.10
2022-12-01T00:14:43.096Z,25.09
2022-12-01T00:15:13.176Z,25.09
2022-12-01T00:15:43.244Z,25.09
2022-12-01T00:16:13.450Z,25.10
2022-12-01T00:16:43.501Z,25.11
2022-12-01T00:17:13.479Z,25.13
2022-12-01T00:17:43.573Z,25.11
2022-12-01T00:18:13.656Z,25.09
2022-12-01T00:18:43.745Z,25.10
2022-12-01T00:19:13.815Z,25.10
2022-12-01T00:19:43.893Z,25.10
2022-12-01T00:20:13.976Z,25.09
2022-12-01T00:20:44.035Z,25.09
2022-12-01T00:21:14.130Z,25.10
2022-12-01T00:21:44.230Z,25.09
2022-12-01T00:22:14.305Z,25.07
2022-12-01T00:22:44.384Z,25.10
2022-12-01T00:23:14.452Z,25.11
2022-12-01T00:23:44.539Z,25.09
2022-12-01T00:24:14.614Z,25.07
2022-12-01T00:24:44.733Z,25.10
2022-12-01T00:25:14.822Z,25.10
2022-12-01T00:25:44.944Z,25.10
2022-12-01T00:26:14.987Z,25.09
2022-12-01T00:26:45.021Z,25.10
2022-12-01T00:27:15.125Z,25.10
2022-12-01T00:27:45.153Z,25.09
2022-12-01T00:28:15.242Z,25.09
2022-12-01T00:28:45.278Z,25.10
2022-12-01T00:29:15.367Z,25.07
2022-12-01T00:29:45.526Z,25.10
2022-12-01T00:30:15.539Z,25.10
2022-12-01T00:30:45.624Z,25.07
2022-12-01T00:31:15.703Z,25.09
2022-12-01T00:31:45.905Z,25.10
2022-12-01T00:32:15.983Z,25.09
2022-12-01T00:32:45.927Z,25.11
2022-12-01T00:33:16.011Z,25.09
2022-12-01T00:33:46.020Z,25.06
2022-12-01T00:34:16.097Z,25.10
2022-12-01T00:34:46.100Z,25.09
2022-12-01T00:35:16.095Z,25.10
2022-12-01T00:35:46.204Z,25.09
2022-12-01T00:36:16.349Z,25.09
2022-12-01T00:36:46.336Z,25.09
2022-12-01T00:37:16.328Z,25.10
2022-12-01T00:37:46.451Z,25.06
2022-12-01T00:38:16.442Z,25.09
2022-12-01T00:38:46.562Z,25.07
2022-12-01T00:39:16.674Z,25.09
2022-12-01T00:39:46.959Z,25.10
2022-12-01T00:40:16.843Z,25.09
2022-12-01T00:40:46.820Z,25.05
2022-12-01T00:41:16.983Z,25.07
2022-12-01T00:41:46.893Z,25.07
2022-12-01T00:42:16.917Z,25.07
2022-12-01T00:42:46.903Z,25.09
2022-12-01T00:43:16.928Z,25.09
2022-12-01T00:43:46.973Z,25.10
2022-12-01T00:44:16.946Z,25.09
2022-12-01T00:44:46.950Z,25.07
2022-12-01T00:45:17.060Z,25.07
2022-12-01T00:45:47.289Z,25.09
2022-12-01T00:46:17.265Z,25.09
2022-12-01T00:46:47.294Z,25.10
2022-12-01T00:47:17.361Z,25.07
2022-12-01T00:47:47.464Z,25.09
2022-12-01T00:48:17.587Z,25.07
2022-12-01T00:48:47.665Z,25.09
2022-12-01T00:49:17.694Z,25.09
2022-12-01T00:49:48.000Z,25.09
2022-12-01T00:50:17.736Z,25.07
2022-12-01T00:50:47.858Z,25.09
2022-12-01T00:51:17.863Z,25.07
2022-12-01T00:51:47.862Z,25.11
2022-12-01T00:52:17.852Z,25.07
2022-12-01T00:52:47.976Z,25.10
2022-12-01T00:53:17.988Z,25.09
2022-12-01T00:53:47.970Z,25.09
2022-12-01T00:54:18.088Z,25.09
2022-12-01T00:54:48.198Z,25.09
2022-12-01T00:55:18.211Z,25.09
2022-12-01T00:55:48.240Z,25.10
2022-12-01T00:56:18.259Z,25.10
2022-12-01T00:56:48.262Z,25.09
2022-12-01T00:57:18.261Z,25.10
2022-12-01T00:57:48.372Z,25.09
2022-12-01T00:58:18.533Z,25.09
2022-12-01T00:58:48.504Z,25.10
2022-12-01T00:59:18.635Z,25.07
2022-12-01T00:59:48.914Z,25.10
2022-12-01T01:00:18.757Z,25.10
2022-12-01T01:00:48.862Z,25.09
2022-12-01T01:01:18.921Z,25.09
2022-12-01T01:01:49.023Z,25.07
2022-12-01T01:02:19.145Z,25.09
2022-12-01T01:02:49.067Z,25.07
2022-12-01T01:03:19.091Z,25.07
2022-12-01T01:03:49.097Z,25.09
2022-12-01T01:04:19.080Z,25.09
2022-12-01T01:04:49.195Z,25.07
2022-12-01T01:05:19.196Z,25.07
2022-12-01T01:05:49.308Z,25.07
2022-12-01T01:06:19.446Z,25.07
2022-12-01T01:06:49.468Z,25.09
2022-12-01T01:07:19.592Z,25.11
2022-12-01T01:07:49.550Z,25.06
2022-12-01T01:08:19.546Z,25.07
2022-12-01T01:08:49.546Z,25.07
2022-12-01T01:09:19.660Z,25.10
2022-12-01T01:09:49.969Z,25.05
2022-12-01T01:10:19.669Z,25.06
2022-12-01T01:10:49.801Z,25.09
2022-12-01T01:11:19.851Z,25.07
2022-12-01T01:11:49.945Z,25.09
2022-12-01T01:12:19.945Z,25.06
2022-12-01T01:12:50.051Z,25.06
2022-12-01T01:13:20.098Z,25.07
2022-12-01T01:13:50.078Z,25.06
2022-12-01T01:14:20.121Z,25.07
2022-12-01T01:14:50.135Z,25.06
2022-12-01T01:15:20.202Z,25.07
2022-12-01T01:15:50.282Z,25.07
2022-12-01T01:16:20.423Z,25.09
2022-12-01T01:16:50.454Z,25.09
2022-12-01T01:17:20.427Z,25.09
2022-12-01T01:17:50.524Z,25.06
2022-12-01T01:18:20.606Z,25.09
2022-12-01T01:18:50.718Z,25.07
2022-12-01T01:19:20.794Z,25.09
2022-12-01T01:19:51.209Z,25.09
2022-12-01T01:20:20.989Z,25.06
2022-12-01T01:20:51.068Z,25.07
2022-12-01T01:21:21.171Z,25.07
2022-12-01T01:21:51.239Z,25.07
2022-12-01T01:22:21.324Z,25.07
2022-12-01T01:22:51.402Z,25.07
2022-12-01T01:23:21.500Z,25.09
2022-12-01T01:23:51.569Z,25.06
2022-12-01T01:24:21.676Z,25.07
2022-12-01T01:24:51.733Z,25.06
2022-12-01T01:25:21.850Z,25.05
2022-12-01T01:25:51.956Z,25.06
2022-12-01T01:26:22.081Z,25.05
2022-12-01T01:26:52.234Z,25.05
2022-12-01T01:27:22.217Z,25.07
2022-12-01T01:27:52.188Z,25.05
2022-12-01T01:28:22.326Z,25.05
2022-12-01T01:28:52.314Z,25.05
2022-12-01T01:29:22.423Z,25.02
2022-12-01T01:29:52.441Z,25.06
2022-12-01T01:30:22.498Z,25.07
2022-12-01T01:30:52.590Z,25.03
2022-12-01T01:31:22.656Z,25.05
2022-12-01T01:31:52.675Z,25.07
2022-12-01T01:32:22.686Z,25.03
2022-12-01T01:32:52.655Z,25.06
2022-12-01T01:33:22.661Z,25.05
2022-12-01T01:33:52.667Z,25.07
2022-12-01T01:34:22.778Z,25.05
2022-12-01T01:34:52.776Z,25.06
2022-12-01T01:35:22.779Z,25.05
2022-12-01T01:35:52.905Z,25.05
2022-12-01T01:36:23.008Z,25.05
2022-12-01T01:36:53.014Z,25.03
2022-12-01T01:37:23.159Z,25.06
2022-12-01T01:37:53.045Z,25.05
2022-12-01T01:38:23.144Z,25.03
2022-12-01T01:38:53.167Z,25.06
2022-12-01T01:39:23.184Z,25.02
2022-12-01T01:39:53.168Z,25.03
2022-12-01T01:40:23.162Z,25.05
2022-12-01T01:40:53.157Z,25.06
2022-12-01T01:41:23.183Z,25.03
2022-12-01T01:41:53.151Z,25.03
2022-12-01T01:42:23.189Z,25.03
2022-12-01T01:42:53.160Z,25.03
2022-12-01T01:43:23.159Z,25.05
2022-12-01T01:43:53.167Z,25.03
2022-12-01T01:44:23.276Z,25.06
2022-12-01T01:44:53.382Z,25.05
2022-12-01T01:45:23.504Z,25.03
2022-12-01T01:45:53.591Z,25.05
2022-12-01T01:46:23.658Z,25.02
2022-12-01T01:46:53.696Z,25.03
2022-12-01T01:47:23.680Z,25.05
2022-12-01T01:47:53.795Z,25.05
2022-12-01T01:48:23.897Z,25.03
2022-12-01T01:48:54.038Z,25.03
2022-12-01T01:49:24.158Z,25.05
2022-12-01T01:49:54.150Z,25.05
2022-12-01T01:50:24.144Z,25.05
2022-12-01T01:50:54.268Z,25.05
2022-12-01T01:51:24.270Z,25.02
2022-12-01T01:51:54.267Z,25.06
2022-12-01T01:52:24.313Z,25.05
2022-12-01T01:52:54.291Z,25.06
2022-12-01T01:53:24.309Z,25.05
2022-12-01T01:53:54.326Z,25.05
2022-12-01T01:54:24.332Z,25.05
2022-12-01T01:54:54.440Z,25.06
2022-12-01T01:55:24.567Z,25.03
2022-12-01T01:55:54.556Z,25.06
2022-12-01T01:56:24.676Z,25.03
2022-12-01T01:56:54.681Z,25.05
2022-12-01T01:57:24.717Z,25.03
2022-12-01T01:57:54.671Z,25.05
2022-12-01T01:58:24.786Z,25.03
2022-12-01T01:58:54.908Z,25.03
2022-12-01T01:59:25.019Z,25.03
2022-12-01T01:59:55.015Z,25.05
2022-12-01T02:00:25.032Z,25.05
2022-12-01T02:00:55.055Z,25.03
2022-12-01T02:01:25.062Z,25.06
2022-12-01T02:01:55.184Z,25.05
2022-12-01T02:02:25.238Z,25.03
2022-12-01T02:02:55.332Z,25.05
2022-12-01T02:03:25.349Z,25.03
2022-12-01T02:03:55.347Z,25.06
2022-12-01T02:04:25.352Z,25.02
2022-12-01T02:04:55.348Z,25.05
2022-12-01T02:05:25.356Z,25.05
2022-12-01T02:05:56.224Z,25.03
2022-12-01T02:06:25.403Z,25.05
2022-12-01T02:06:55.410Z,25.05
2022-12-01T02:07:25.488Z,25.06
2022-12-01T02:07:55.538Z,25.02
2022-12-01T02:08:25.541Z,25.05
2022-12-01T02:08:55.534Z,25.03
2022-12-01T02:09:25.669Z,25.05
2022-12-01T02:09:55.706Z,25.05
2022-12-01T02:10:25.698Z,25.05
2022-12-01T02:10:55.702Z,25.03
2022-12-01T02:11:25.800Z,25.07
2022-12-01T02:11:55.926Z,25.05
2022-12-01T02:12:25.943Z,25.05
2022-12-01T02:12:55.957Z,25.05
2022-12-01T02:13:25.936Z,25.06
2022-12-01T02:13:56.066Z,25.05
2022-12-01T02:14:26.036Z,25.05
2022-12-01T02:14:56.136Z,25.05
2022-12-01T02:15:26.228Z,25.03
2022-12-01T02:15:56.311Z,25.03
2022-12-01T02:16:26.418Z,25.02
2022-12-01T02:16:56.449Z,25.05
2022-12-01T02:17:26.423Z,25.05
2022-12-01T02:17:56.504Z,25.03
2022-12-01T02:18:26.583Z,25.03
2022-12-01T02:18:56.653Z,25.03
2022-12-01T02:19:26.745Z,25.02
2022-12-01T02:19:56.886Z,25.05
2022-12-01T02:20:26.931Z,25.03
2022-12-01T02:20:57.004Z,25.03
2022-12-01T02:21:27.108Z,25.03
2022-12-01T02:21:57.109Z,25.03
2022-12-01T02:22:27.204Z,25.03
2022-12-01T02:22:57.284Z,25.00
2022-12-01T02:23:27.381Z,25.05
2022-12-01T02:23:57.461Z,25.03
2022-12-01T02:24:27.545Z,25.05
2022-12-01T02:24:57.691Z,25.03
2022-12-01T02:25:27.665Z,25.03
2022-12-01T02:25:57.705Z,25.03
2022-12-01T02:26:27.690Z,25.03
2022-12-01T02:26:57.704Z,25.02
2022-12-01T02:27:27.726Z,25.03
2022-12-01T02:27:57.730Z,25.02
2022-12-01T02:28:27.739Z,25.03
2022-12-01T02:28:57.719Z,25.03
2022-12-01T02:29:27.705Z,25.02
2022-12-01T02:29:57.826Z,25.03
2022-12-01T02:30:27.884Z,25.05
2022-12-01T02:30:57.938Z,25.03
2022-12-01T02:31:27.917Z,25.03
2022-12-01T02:31:58.059Z,25.02
2022-12-01T02:32:28.058Z,25.03
2022-12-01T02:32:58.067Z,24.99
2022-12-01T02:33:28.065Z,25.03
2022-12-01T02:33:58.072Z,25.03
2022-12-01T02:34:28.065Z,25.02
2022-12-01T02:34:58.069Z,25.00
2022-12-01T02:35:28.063Z,25.02
2022-12-01T02:35:58.095Z,25.02
2022-12-01T02:36:28.084Z,25.02
2022-12-01T02:36:58.083Z,25.05
2022-12-01T02:37:28.079Z,25.02
2022-12-01T02:37:58.190Z,25.03
2022-12-01T02:38:28.195Z,25.02
2022-12-01T02:38:58.197Z,25.02
2022-12-01T02:39:28.199Z,25.05
2022-12-01T02:39:58.203Z,25.00
2022-12-01T02:40:28.193Z,25.03
2022-12-01T02:40:58.190Z,25.05
2022-12-01T02:41:28.313Z,25.02
2022-12-01T02:41:58.428Z,25.02
2022-12-01T02:42:28.559Z,25.02
2022-12-01T02:42:58.560Z,25.02
2022-12-01T02:43:28.583Z,25.03
2022-12-01T02:43:58.607Z,25.02
2022-12-01T02:44:28.614Z,25.03
2022-12-01T02:44:58.626Z,25.03
2022-12-01T02:45:28.646Z,25.02
2022-12-01T02:45:58.721Z,25.03
2022-12-01T02:46:28.745Z,25.02
2022-12-01T02:46:58.739Z,25.00
2022-12-01T02:47:28.969Z,25.03
2022-12-01T02:47:58.828Z,25.05
2022-12-01T02:48:28.944Z,25.03
2022-12-01T02:48:58.943Z,25.02
2022-12-01T02:49:29.051Z,25.02
2022-12-01T02:49:59.159Z,25.02
2022-12-01T02:50:29.291Z,25.02
2022-12-01T02:50:59.291Z,25.02
2022-12-01T02:51:29.280Z,25.03
2022-12-01T02:51:59.387Z,25.00
2022-12-01T02:52:29.528Z,25.02
2022-12-01T02:52:59.526Z,25.00
2022-12-01T02:53:29.513Z,25.00
2022-12-01T02:53:59.629Z,25.00
2022-12-01T02:54:29.736Z,24.99
2022-12-01T02:54:59.869Z,24.99
2022-12-01T02:55:29.852Z,25.02
2022-12-01T02:55:59.848Z,25.00
2022-12-01T02:56:29.996Z,25.00
2022-12-01T02:57:00.040Z,25.00
2022-12-01T02:57:30.086Z,24.99
2022-12-01T02:58:00.179Z,25.00
2022-12-01T02:58:30.244Z,25.00
2022-12-01T02:59:00.238Z,25.00
2022-12-01T02:59:30.293Z,24.99
2022-12-01T03:00:00.299Z,25.00
2022-12-01T03:00:30.341Z,24.99
2022-12-01T03:01:00.411Z,24.99
2022-12-01T03:01:30.480Z,24.97
2022-12-01T03:02:00.566Z,24.95
2022-12-01T03:02:30.654Z,24.99
2022-12-01T03:03:00.603Z,24.97
2022-12-01T03:03:30.612Z,24.99
2022-12-01T03:04:00.625Z,25.00
2022-12-01T03:04:30.700Z,25.00
2022-12-01T03:05:00.791Z,24.97
2022-12-01T03:05:30.849Z,25.00
2022-12-01T03:06:00.843Z,24.99
2022-12-01T03:06:30.893Z,24.96
2022-12-01T03:07:00.925Z,24.99
2022-12-01T03:07:30.977Z,25.00
2022-12-01T03:08:01.131Z,24.97
2022-12-01T03:08:30.996Z,24.99
2022-12-01T03:09:01.077Z,24.96
2022-12-01T03:09:31.066Z,24.97
2022-12-01T03:10:01.116Z,24.97
2022-12-01T03:10:31.098Z,24.99
2022-12-01T03:11:01.217Z,24.97
2022-12-01T03:11:31.220Z,24.97
2022-12-01T03:12:01.224Z,24.96
2022-12-01T03:12:31.341Z,24.96
2022-12-01T03:13:01.338Z,24.97
2022-12-01T03:13:31.351Z,24.99
2022-12-01T03:14:01.457Z,24.99
2022-12-01T03:14:31.596Z,24.99
2022-12-01T03:15:01.685Z,24.99
2022-12-01T03:15:31.739Z,24.99
2022-12-01T03:16:01.915Z,24.96
2022-12-01T03:16:32.047Z,24.99
2022-12-01T03:17:01.995Z,24.97
2022-12-01T03:17:32.061Z,24.99
2022-12-01T03:18:02.141Z,24.96
2022-12-01T03:18:32.238Z,24.99
2022-12-01T03:19:02.310Z,24.99
2022-12-01T03:19:32.397Z,24.97
2022-12-01T03:20:02.474Z,25.00
2022-12-01T03:20:32.543Z,24.99
2022-12-01T03:21:02.627Z,24.97
2022-12-01T03:21:32.729Z,24.99
2022-12-01T03:22:02.781Z,24.97
2022-12-01T03:22:32.894Z,24.99
2022-12-01T03:23:02.962Z,24.97
2022-12-01T03:23:33.058Z,24.97
2022-12-01T03:24:03.140Z,24.99
2022-12-01T03:24:33.222Z,24.99
2022-12-01T03:25:03.360Z,24.99
2022-12-01T03:25:33.347Z,24.97
2022-12-01T03:26:03.460Z,24.99
2022-12-01T03:26:33.571Z,24.97
2022-12-01T03:27:03.684Z,25.00
2022-12-01T03:27:33.712Z,25.02
2022-12-01T03:28:23.219Z,24.97
2022-12-01T03:28:33.739Z,24.99
2022-12-01T03:29:03.797Z,24.99
2022-12-01T03:29:33.781Z,25.00
2022-12-01T03:30:03.921Z,24.99
2022-12-01T03:30:33.891Z,25.00
2022-12-01T03:31:04.104Z,24.99
2022-12-01T03:31:34.276Z,25.02
2022-12-01T03:32:04.175Z,25.02
2022-12-01T03:32:34.189Z,24.99
2022-12-01T03:33:04.181Z,24.99
2022-12-01T03:33:34.304Z,25.00
2022-12-01T03:34:04.310Z,24.99
2022-12-01T03:34:34.319Z,25.02
2022-12-01T03:35:04.319Z,25.02
2022-12-01T03:35:34.395Z,24.99
2022-12-01T03:36:04.411Z,25.00
2022-12-01T03:36:34.543Z,24.99
2022-12-01T03:37:04.534Z,24.99
2022-12-01T03:37:34.535Z,25.00
2022-12-01T03:38:04.539Z,24.99
2022-12-01T03:38:34.533Z,24.99
2022-12-01T03:39:04.655Z,25.00
2022-12-01T03:39:34.656Z,25.00
2022-12-01T03:40:04.760Z,25.00
2022-12-01T03:40:34.772Z,24.99
2022-12-01T03:41:04.763Z,24.97
2022-12-01T03:41:34.766Z,25.00
2022-12-01T03:42:04.768Z,24.99
2022-12-01T03:42:34.774Z,24.99
2022-12-01T03:43:04.777Z,24.99
2022-12-01T03:43:34.772Z,25.00
2022-12-01T03:44:04.881Z,24.99
2022-12-01T03:44:34.994Z,24.97
2022-12-01T03:45:05.128Z,24.99
2022-12-01T03:45:35.138Z,25.00
2022-12-01T03:46:05.169Z,25.00
2022-12-01T03:46:35.252Z,25.00
2022-12-01T03:47:05.264Z,24.99
2022-12-01T03:47:35.287Z,24.97
2022-12-01T03:48:05.305Z,24.97
2022-12-01T03:48:35.327Z,24.96
2022-12-01T03:49:05.307Z,24.97
2022-12-01T03:49:35.339Z,24.99
2022-12-01T03:50:05.338Z,24.96
2022-12-01T03:50:35.321Z,24.99
2022-12-01T03:51:05.429Z,24.97
2022-12-01T03:51:35.448Z,24.96
2022-12-01T03:52:05.563Z,24.97
2022-12-01T03:52:35.663Z,24.96
2022-12-01T03:53:05.785Z,24.97
2022-12-01T03:53:35.780Z,24.99
2022-12-01T03:54:05.892Z,24.97
2022-12-01T03:54:36.037Z,24.97
2022-12-01T03:55:06.025Z,24.97
2022-12-01T03:55:36.045Z,24.95
2022-12-01T03:56:06.033Z,24.97
2022-12-01T03:56:36.142Z,24.97
2022-12-01T03:57:06.286Z,24.96
2022-12-01T03:57:36.269Z,24.97
2022-12-01T03:58:06.403Z,24.96
2022-12-01T03:58:36.455Z,24.96
2022-12-01T03:59:06.457Z,24.96
2022-12-01T03:59:36.578Z,24.96
2022-12-01T04:00:06.588Z,24.96
2022-12-01T04:00:36.587Z,24.96
2022-12-01T04:01:06.621Z,24.96
2022-12-01T04:01:36.681Z,24.96
2022-12-01T04:02:06.760Z,24.95
2022-12-01T04:02:36.789Z,24.95
2022-12-01T04:03:06.820Z,24.97
2022-12-01T04:03:36.809Z,24.97
2022-12-01T04:04:06.809Z,24.95
2022-12-01T04:04:36.924Z,24.97
2022-12-01T04:05:07.046Z,24.91
2022-12-01T04:05:37.030Z,24.96
2022-12-01T04:06:07.157Z,24.96
2022-12-01T04:06:37.174Z,24.95
2022-12-01T04:07:07.150Z,24.95
2022-12-01T04:07:37.418Z,24.96
2022-12-01T04:08:07.377Z,24.96
2022-12-01T04:08:37.424Z,24.96
2022-12-01T04:09:07.408Z,24.96
2022-12-01T04:09:37.528Z,24.93
2022-12-01T04:10:07.643Z,24.95
2022-12-01T04:10:37.761Z,24.95
2022-12-01T04:11:07.869Z,24.91
2022-12-01T04:11:37.991Z,24.95
2022-12-01T04:12:07.981Z,24.95
2022-12-01T04:12:38.099Z,24.95
2022-12-01T04:13:08.240Z,24.96
2022-12-01T04:13:38.254Z,24.95
2022-12-01T04:14:08.256Z,24.93
2022-12-01T04:14:38.243Z,24.93
2022-12-01T04:15:08.316Z,24.93
2022-12-01T04:15:38.422Z,24.91
2022-12-01T04:16:08.589Z,24.93
2022-12-01T04:16:38.562Z,24.95
2022-12-01T04:17:08.652Z,24.93
2022-12-01T04:17:38.730Z,24.91
2022-12-01T04:18:08.813Z,24.91
2022-12-01T04:18:38.918Z,24.95
2022-12-01T04:19:09.007Z,24.93
2022-12-01T04:19:39.126Z,24.95
2022-12-01T04:20:09.192Z,24.95
2022-12-01T04:20:39.272Z,24.95
2022-12-01T04:21:09.354Z,24.91
2022-12-01T04:21:39.467Z,24.93
2022-12-01T04:22:09.548Z,24.95
2022-12-01T04:22:39.642Z,24.93
2022-12-01T04:23:09.728Z,24.95
2022-12-01T04:23:39.810Z,24.93
2022-12-01T04:24:09.891Z,24.93
2022-12-01T04:24:39.966Z,24.95
2022-12-01T04:25:10.079Z,24.97
2022-12-01T04:25:40.129Z,24.96
2022-12-01T04:26:15.611Z,24.95
2022-12-01T04:26:40.153Z,24.95
2022-12-01T04:27:10.177Z,24.93
2022-12-01T04:27:40.142Z,24.95
2022-12-01T04:28:10.169Z,24.93
2022-12-01T04:28:40.190Z,24.95
2022-12-01T04:29:10.179Z,24.95
2022-12-01T04:29:40.320Z,24.93
2022-12-01T04:30:10.309Z,24.93
2022-12-01T04:30:40.424Z,24.96
2022-12-01T04:31:10.577Z,24.93
2022-12-01T04:31:40.662Z,24.95
2022-12-01T04:32:10.685Z,24.95
2022-12-01T04:32:40.797Z,24.95
2022-12-01T04:33:10.905Z,24.95
2022-12-01T04:33:41.040Z,24.96
2022-12-01T04:34:11.034Z,24.93
2022-12-01T04:34:41.033Z,24.95
2022-12-01T04:35:11.037Z,24.95
2022-12-01T04:35:41.152Z,24.95
2022-12-01T04:36:11.161Z,24.93
2022-12-01T04:36:41.159Z,24.93
2022-12-01T04:37:11.299Z,24.95
2022-12-01T04:37:41.288Z,24.96
2022-12-01T04:38:11.306Z,24.93
2022-12-01T04:38:41.324Z,24.91
2022-12-01T04:39:11.307Z,24.95
2022-12-01T04:39:41.420Z,24.96
2022-12-01T04:40:11.544Z,24.91
2022-12-01T04:40:41.530Z,24.95
2022-12-01T04:41:11.654Z,24.95
2022-12-01T04:41:41.705Z,24.93
2022-12-01T04:42:11.701Z,24.95
2022-12-01T04:42:41.818Z,24.93
2022-12-01T04:43:11.824Z,24.96
2022-12-01T04:43:41.823Z,24.96
2022-12-01T04:44:11.808Z,24.93
2022-12-01T04:44:41.925Z,24.93
2022-12-01T04:45:12.049Z,24.91
2022-12-01T04:45:42.043Z,24.93
2022-12-01T04:46:12.209Z,24.95
2022-12-01T04:46:42.288Z,24.96
2022-12-01T04:47:12.321Z,24.93
2022-12-01T04:47:42.418Z,24.95
2022-12-01T04:48:12.533Z,24.95
2022-12-01T04:48:42.662Z,24.93
2022-12-01T04:49:12.645Z,24.95
2022-12-01T04:49:42.705Z,24.93
2022-12-01T04:50:12.797Z,24.93
2022-12-01T04:50:42.761Z,24.93
2022-12-01T04:51:12.763Z,24.95
2022-12-01T04:51:42.878Z,24.93
2022-12-01T04:52:12.883Z,24.96
2022-12-01T04:52:42.992Z,24.96
2022-12-01T04:53:13.121Z,24.97
2022-12-01T04:53:43.125Z,24.96
2022-12-01T04:54:13.252Z,24.97
2022-12-01T04:54:43.269Z,24.96
2022-12-01T04:55:13.257Z,24.99
2022-12-01T04:55:43.263Z,24.95
2022-12-01T04:56:13.395Z,24.96
2022-12-01T04:56:43.378Z,24.96
2022-12-01T04:57:13.545Z,24.96
2022-12-01T04:57:43.564Z,24.96
2022-12-01T04:58:13.555Z,24.99
2022-12-01T04:58:43.572Z,24.99
2022-12-01T04:59:13.577Z,25.00
2022-12-01T04:59:43.575Z,25.00
2022-12-01T05:00:13.560Z,25.02
2022-12-01T05:00:43.769Z,25.03
2022-12-01T05:01:13.892Z,25.02
2022-12-01T05:01:43.811Z,25.02
2022-12-01T05:02:13.868Z,24.97
2022-12-01T05:02:43.833Z,24.99
2022-12-01T05:03:15.294Z,25.00
2022-12-01T05:03:43.891Z,25.00
2022-12-01T05:04:14.006Z,25.03
2022-12-01T05:04:43.994Z,25.02
2022-12-01T05:05:14.004Z,25.00
2022-12-01T05:05:43.988Z,24.99
2022-12-01T05:06:14.105Z,25.03
2022-12-01T05:06:44.219Z,25.02
2022-12-01T05:07:14.356Z,25.03
2022-12-01T05:07:44.494Z,25.03
2022-12-01T05:08:14.432Z,25.03
2022-12-01T05:08:44.434Z,25.05
2022-12-01T05:09:17.527Z,25.05
2022-12-01T05:09:44.526Z,25.06
2022-12-01T05:10:14.506Z,25.05
2022-12-01T05:10:44.627Z,25.05
2022-12-01T05:11:14.633Z,25.06
2022-12-01T05:11:44.620Z,25.06
2022-12-01T05:12:14.723Z,25.07
2022-12-01T05:12:44.887Z,25.05
2022-12-01T05:13:14.875Z,25.07
2022-12-01T05:13:45.033Z,25.07
2022-12-01T05:14:15.028Z,25.07
2022-12-01T05:14:45.031Z,25.07
2022-12-01T05:15:15.026Z,25.06
2022-12-01T05:15:45.035Z,25.09
2022-12-01T05:16:15.262Z,25.06
2022-12-01T05:16:45.296Z,25.09
2022-12-01T05:17:15.265Z,25.10
2022-12-01T05:17:45.360Z,25.10
2022-12-01T05:18:15.426Z,25.10
2022-12-01T05:18:45.492Z,25.05
2022-12-01T05:19:15.531Z,25.05
2022-12-01T05:19:45.565Z,25.05
2022-12-01T05:20:15.578Z,25.05
2022-12-01T05:20:45.577Z,25.05
2022-12-01T05:21:15.686Z,25.09
2022-12-01T05:21:45.825Z,25.02
2022-12-01T05:22:15.862Z,24.99
2022-12-01T05:23:04.896Z,24.99
2022-12-01T05:23:17.196Z,24.87
2022-12-01T05:23:45.916Z,24.91
2022-12-01T05:24:15.977Z,24.90
2022-12-01T05:24:46.012Z,24.91
2022-12-01T05:25:16.103Z,24.91
2022-12-01T05:25:46.133Z,24.89
2022-12-01T05:26:16.164Z,24.87
2022-12-01T05:26:46.194Z,24.90
2022-12-01T05:27:16.231Z,24.93
2022-12-01T05:27:46.274Z,24.95
2022-12-01T05:28:16.301Z,24.96
2022-12-01T05:28:46.337Z,24.93
2022-12-01T05:29:16.366Z,24.96
2022-12-01T05:29:46.731Z,24.99
2022-12-01T05:30:16.512Z,24.99
2022-12-01T05:30:46.569Z,25.00
2022-12-01T05:31:16.691Z,24.99
2022-12-01T05:31:46.786Z,25.03
2022-12-01T05:32:16.720Z,25.03
2022-12-01T05:32:46.759Z,25.05
2022-12-01T05:33:16.814Z,25.05
2022-12-01T05:33:46.967Z,25.07
2022-12-01T05:34:16.838Z,25.09
2022-12-01T05:34:46.883Z,25.07
2022-12-01T05:35:16.938Z,25.11
2022-12-01T05:35:46.968Z,25.09
2022-12-01T05:36:17.032Z,25.11
2022-12-01T05:36:47.065Z,25.13
2022-12-01T05:37:17.097Z,25.13
2022-12-01T05:37:47.140Z,25.13
2022-12-01T05:38:17.167Z,25.13
2022-12-01T05:38:47.198Z,25.17
2022-12-01T05:39:17.271Z,25.14
2022-12-01T05:39:47.783Z,25.13
2022-12-01T05:40:17.293Z,25.13
2022-12-01T05:40:47.338Z,25.13
2022-12-01T05:41:17.429Z,25.16
2022-12-01T05:41:47.449Z,25.13
2022-12-01T05:42:17.490Z,25.17
2022-12-01T05:42:47.505Z,25.17
2022-12-01T05:43:17.550Z,25.14
2022-12-01T05:43:47.622Z,25.16
2022-12-01T05:44:17.680Z,25.13
2022-12-01T05:44:47.712Z,25.10
2022-12-01T05:45:17.749Z,25.11
2022-12-01T05:45:47.845Z,25.13
2022-12-01T05:46:17.969Z,25.16
2022-12-01T05:46:47.906Z,25.13
2022-12-01T05:47:17.929Z,25.11
2022-12-01T05:47:47.977Z,25.14
2022-12-01T05:48:18.009Z,25.14
2022-12-01T05:48:48.046Z,25.16
2022-12-01T05:49:18.112Z,25.16
2022-12-01T05:49:48.444Z,25.17
2022-12-01T05:50:18.207Z,25.16
2022-12-01T05:50:48.260Z,25.17
2022-12-01T05:51:18.289Z,25.17
2022-12-01T05:51:48.363Z,25.16
2022-12-01T05:52:18.413Z,25.17
2022-12-01T05:52:48.443Z,25.19
2022-12-01T05:53:18.478Z,25.19
2022-12-01T05:53:48.509Z,25.19
2022-12-01T05:54:18.572Z,25.20
2022-12-01T05:54:48.604Z,25.21
2022-12-01T05:55:18.629Z,25.20
2022-12-01T05:55:48.657Z,25.21
2022-12-01T05:56:18.727Z,25.20
2022-12-01T05:56:48.763Z,25.21
2022-12-01T05:57:18.797Z,25.21
2022-12-01T05:57:48.849Z,25.21
2022-12-01T05:58:18.873Z,25.14
2022-12-01T05:58:48.903Z,25.17
2022-12-01T05:59:18.953Z,25.16
2022-12-01T05:59:49.241Z,25.13
2022-12-01T06:00:19.003Z,25.13
2022-12-01T06:00:49.032Z,25.16
2022-12-01T06:01:19.061Z,25.14
2022-12-01T06:01:49.126Z,25.17
2022-12-01T06:02:19.187Z,25.16
2022-12-01T06:02:49.241Z,25.16
2022-12-01T06:03:19.287Z,25.16
2022-12-01T06:03:49.383Z,25.19
2022-12-01T06:04:19.561Z,25.16
2022-12-01T06:04:49.467Z,25.16
2022-12-01T06:05:19.515Z,25.19
2022-12-01T06:05:49.561Z,25.20
2022-12-01T06:06:19.597Z,25.20
2022-12-01T06:06:49.640Z,25.19
2022-12-01T06:07:19.706Z,25.20
2022-12-01T06:07:49.863Z,25.23
2022-12-01T06:08:19.788Z,25.23
2022-12-01T06:08:49.832Z,25.26
2022-12-01T06:09:19.859Z,25.28
2022-12-01T06:09:50.232Z,25.28
2022-12-01T06:10:19.903Z,25.30
2022-12-01T06:10:49.959Z,25.30
2022-12-01T06:11:20.001Z,25.34
2022-12-01T06:11:52.521Z,25.37
2022-12-01T06:12:20.131Z,25.41
2022-12-01T06:12:50.189Z,25.41
2022-12-01T06:13:20.229Z,25.45
2022-12-01T06:13:50.296Z,25.45
2022-12-01T06:14:20.354Z,25.49
2022-12-01T06:14:50.394Z,25.52
2022-12-01T06:15:20.411Z,25.54
2022-12-01T06:15:50.399Z,25.58
2022-12-01T06:16:20.607Z,25.60
2022-12-01T06:16:50.675Z,25.62
2022-12-01T06:17:20.716Z,25.62
2022-12-01T06:17:50.752Z,25.68
2022-12-01T06:18:20.759Z,25.69
2022-12-01T06:18:50.752Z,25.72
2022-12-01T06:19:20.814Z,25.75
2022-12-01T06:19:51.106Z,25.76
2022-12-01T06:20:20.823Z,25.76
2022-12-01T06:20:50.845Z,25.79
2022-12-01T06:21:20.895Z,25.84
2022-12-01T06:21:50.912Z,25.84
2022-12-01T06:22:20.908Z,25.86
2022-12-01T06:22:50.920Z,25.86
2022-12-01T06:23:20.927Z,25.86
2022-12-01T06:23:50.926Z,25.92
2022-12-01T06:24:21.069Z,25.92
2022-12-01T06:24:51.092Z,25.93
2022-12-01T06:25:21.127Z,25.95
2022-12-01T06:25:51.164Z,25.95
2022-12-01T06:26:21.197Z,25.99
2022-12-01T06:26:51.238Z,25.99